createdAt,value
2022-10-11T00:00:06.078Z,75.67
2022-10-11T00:00:18.190Z,75.53
2022-10-11T00:00:32.484Z,75.47
2022-10-11T00:00:44.391Z,75.46
2022-10-11T00:00:56.443Z,75.21
2022-10-11T00:01:08.462Z,75.31
2022-10-11T00:01:20.660Z,75.15
2022-10-11T00:01:32.823Z,74.98
2022-10-11T00:01:44.803Z,75.02
2022-10-11T00:01:56.772Z,75.11
2022-10-11T00:02:08.680Z,74.72
2022-10-11T00:02:20.671Z,74.86
2022-10-11T00:02:32.616Z,74.87
2022-10-11T00:02:44.605Z,74.80
2022-10-11T00:02:57.414Z,74.75
2022-10-11T00:03:09.638Z,74.72
2022-10-11T00:03:21.924Z,75.04
2022-10-11T00:03:33.876Z,74.71
2022-10-11T00:03:45.753Z,74.73
2022-10-11T00:03:57.636Z,74.77
2022-10-11T00:04:09.579Z,74.70
2022-10-11T00:04:21.489Z,74.69
2022-10-11T00:04:33.461Z,74.85
2022-10-11T00:04:45.591Z,74.80
2022-10-11T00:04:57.460Z,74.91
2022-10-11T00:05:09.665Z,74.80
2022-10-11T00:05:21.547Z,74.88
2022-10-11T00:05:33.660Z,74.89
2022-10-11T00:05:45.996Z,75.13
2022-10-11T00:05:57.997Z,75.03
2022-10-11T00:06:10.022Z,75.05
2022-10-11T00:06:21.916Z,74.89
2022-10-11T00:06:33.887Z,75.36
2022-10-11T00:06:47.171Z,75.40
2022-10-11T00:06:59.140Z,75.42
2022-10-11T00:07:11.032Z,75.64
2022-10-11T00:07:22.914Z,75.40
2022-10-11T00:07:37.241Z,75.68
2022-10-11T00:07:49.277Z,75.75
2022-10-11T00:08:01.521Z,75.84
2022-10-11T00:08:14.249Z,76.08
2022-10-11T00:08:27.247Z,76.13
2022-10-11T00:08:39.164Z,76.03
2022-10-11T00:08:51.061Z,76.09
2022-10-11T00:09:03.828Z,76.00
2022-10-11T00:09:16.156Z,75.88
2022-10-11T00:09:28.126Z,75.85
2022-10-11T00:09:40.315Z,75.82
2022-10-11T00:09:52.232Z,75.65
2022-10-11T00:10:06.312Z,75.62
2022-10-11T00:10:19.221Z,75.82
2022-10-11T00:10:32.469Z,76.07
2022-10-11T00:10:44.748Z,76.05
2022-10-11T00:10:59.366Z,75.98
2022-10-11T00:11:11.287Z,75.78
2022-10-11T00:11:23.211Z,75.99
2022-10-11T00:11:35.110Z,75.98
2022-10-11T00:11:47.006Z,76.13
2022-10-11T00:11:59.316Z,75.86
2022-10-11T00:12:11.603Z,75.96
2022-10-11T00:12:23.481Z,75.72
2022-10-11T00:12:36.234Z,75.45
2022-10-11T00:12:48.707Z,75.68
2022-10-11T00:13:00.880Z,75.57
2022-10-11T00:13:12.774Z,75.80
2022-10-11T00:13:25.010Z,75.81
2022-10-11T00:13:36.941Z,75.63
2022-10-11T00:13:48.862Z,75.49
2022-10-11T00:14:00.794Z,75.36
2022-10-11T00:14:12.768Z,75.57
2022-10-11T00:14:25.524Z,75.47
2022-10-11T00:14:38.598Z,75.28
2022-10-11T00:14:50.511Z,75.45
2022-10-11T00:15:03.916Z,75.32
2022-10-11T00:15:18.240Z,75.27
2022-10-11T00:15:30.377Z,75.15
2022-10-11T00:15:42.243Z,75.40
2022-10-11T00:15:54.435Z,75.36
2022-10-11T00:16:10.846Z,75.28
2022-10-11T00:16:23.039Z,75.30
2022-10-11T00:16:34.993Z,75.60
2022-10-11T00:16:46.912Z,75.40
2022-10-11T00:16:58.794Z,75.18
2022-10-11T00:17:10.705Z,75.46
2022-10-11T00:17:22.613Z,75.43
2022-10-11T00:17:35.179Z,75.43
2022-10-11T00:17:47.886Z,75.32
2022-10-11T00:18:04.507Z,75.48
2022-10-11T00:18:17.193Z,75.09
2022-10-11T00:18:29.122Z,75.28
2022-10-11T00:18:41.295Z,75.20
2022-10-11T00:18:53.490Z,75.18
2022-10-11T00:19:05.443Z,75.06
2022-10-11T00:19:17.452Z,75.11
2022-10-11T00:19:29.403Z,74.88
2022-10-11T00:19:41.302Z,75.25
2022-10-11T00:19:53.245Z,75.19
2022-10-11T00:20:05.980Z,75.08
2022-10-11T00:20:18.339Z,75.15
2022-10-11T00:20:30.324Z,74.87
2022-10-11T00:20:42.199Z,75.10
2022-10-11T00:21:02.002Z,75.16
2022-10-11T00:21:15.884Z,74.80
2022-10-11T00:21:27.782Z,75.01
2022-10-11T00:21:39.709Z,74.92
2022-10-11T00:21:51.591Z,74.94
2022-10-11T00:22:03.533Z,74.75
2022-10-11T00:22:15.786Z,74.72
2022-10-11T00:22:27.721Z,74.90
2022-10-11T00:22:40.827Z,74.95
2022-10-11T00:22:53.118Z,74.71
2022-10-11T00:23:05.003Z,74.73
2022-10-11T00:23:17.024Z,74.65
2022-10-11T00:23:29.008Z,74.82
2022-10-11T00:23:41.515Z,74.67
2022-10-11T00:23:53.595Z,74.56
2022-10-11T00:24:06.151Z,74.50
2022-10-11T00:24:18.085Z,74.36
2022-10-11T00:24:29.961Z,74.38
2022-10-11T00:24:41.844Z,74.60
2022-10-11T00:24:53.822Z,74.48
2022-10-11T00:25:08.395Z,74.49
2022-10-11T00:25:20.335Z,74.38
2022-10-11T00:25:32.331Z,74.42
2022-10-11T00:25:44.210Z,74.32
2022-10-11T00:26:01.172Z,74.28
2022-10-11T00:26:13.364Z,74.40
2022-10-11T00:26:25.260Z,74.37
2022-10-11T00:26:37.220Z,74.34
2022-10-11T00:26:49.095Z,74.19
2022-10-11T00:27:00.998Z,74.32
2022-10-11T00:27:12.883Z,74.33
2022-10-11T00:27:24.976Z,74.28
2022-10-11T00:27:37.333Z,74.21
2022-10-11T00:27:49.253Z,74.26
2022-10-11T00:28:01.127Z,74.79
2022-10-11T00:28:13.070Z,74.79
2022-10-11T00:28:25.053Z,74.91
2022-10-11T00:28:37.143Z,74.78
2022-10-11T00:28:52.018Z,74.74
2022-10-11T00:29:04.559Z,74.55
2022-10-11T00:29:16.552Z,74.72
2022-10-11T00:29:28.505Z,74.49
2022-10-11T00:29:40.417Z,74.55
2022-10-11T00:29:52.896Z,74.43
2022-10-11T00:30:06.523Z,74.50
2022-10-11T00:30:18.571Z,74.36
2022-10-11T00:30:31.552Z,74.49
2022-10-11T00:30:43.751Z,74.78
2022-10-11T00:30:55.808Z,74.88
2022-10-11T00:31:13.677Z,74.59
2022-10-11T00:31:25.649Z,74.80
2022-10-11T00:31:37.582Z,75.09
2022-10-11T00:31:49.470Z,75.20
2022-10-11T00:32:01.431Z,74.99
2022-10-11T00:32:13.368Z,75.16
2022-10-11T00:32:25.622Z,75.28
2022-10-11T00:32:38.393Z,75.05
2022-10-11T00:32:50.472Z,75.18
2022-10-11T00:33:02.733Z,75.01
2022-10-11T00:33:14.628Z,75.16
2022-10-11T00:33:26.521Z,75.06
2022-10-11T00:33:38.442Z,74.95
2022-10-11T00:33:50.349Z,74.83
2022-10-11T00:34:02.231Z,74.82
2022-10-11T00:34:15.563Z,74.88
2022-10-11T00:34:27.803Z,74.86
2022-10-11T00:34:39.706Z,75.13
2022-10-11T00:34:51.859Z,75.05
2022-10-11T00:35:06.351Z,75.16
2022-10-11T00:35:18.449Z,74.95
2022-10-11T00:35:30.359Z,74.93
2022-10-11T00:35:42.544Z,74.92
2022-10-11T00:35:54.457Z,74.74
2022-10-11T00:36:08.091Z,74.87
2022-10-11T00:36:21.344Z,75.10
2022-10-11T00:36:33.291Z,75.15
2022-10-11T00:36:45.748Z,75.32
2022-10-11T00:36:57.823Z,75.34
2022-10-11T00:37:09.720Z,75.44
2022-10-11T00:37:21.868Z,75.39
2022-10-11T00:37:35.863Z,75.18
2022-10-11T00:37:47.743Z,75.44
2022-10-11T00:37:59.629Z,75.19
2022-10-11T00:38:11.563Z,75.50
2022-10-11T00:38:23.449Z,75.24
2022-10-11T00:38:35.344Z,75.44
2022-10-11T00:38:47.285Z,75.44
2022-10-11T00:38:59.325Z,75.43
2022-10-11T00:39:13.766Z,75.48
2022-10-11T00:39:26.447Z,75.38
2022-10-11T00:39:38.359Z,75.38
2022-10-11T00:39:50.315Z,75.25
2022-10-11T00:40:03.800Z,75.45
2022-10-11T00:40:18.517Z,75.73
2022-10-11T00:40:30.423Z,75.41
2022-10-11T00:40:42.433Z,75.59
2022-10-11T00:40:54.431Z,76.04
2022-10-11T00:41:06.392Z,76.00
2022-10-11T00:41:18.665Z,75.82
2022-10-11T00:41:30.606Z,75.67
2022-10-11T00:41:42.860Z,75.49
2022-10-11T00:41:55.178Z,75.43
2022-10-11T00:42:13.109Z,75.28
2022-10-11T00:42:25.027Z,75.60
2022-10-11T00:42:36.921Z,75.64
2022-10-11T00:42:48.808Z,75.58
2022-10-11T00:43:01.401Z,75.65
2022-10-11T00:43:22.480Z,75.56
2022-10-11T00:43:34.911Z,75.32
2022-10-11T00:43:46.825Z,75.54
2022-10-11T00:44:20.069Z,75.40
2022-10-11T00:44:33.115Z,75.23
2022-10-11T00:44:49.288Z,75.38
2022-10-11T00:45:31.846Z,75.57
2022-10-11T00:46:02.906Z,75.50
2022-10-11T00:46:17.917Z,75.35
2022-10-11T00:46:32.029Z,75.41
2022-10-11T00:46:53.632Z,75.49
2022-10-11T00:47:12.402Z,75.43
2022-10-11T00:47:24.892Z,75.51
2022-10-11T00:47:36.793Z,75.27
2022-10-11T00:47:48.699Z,75.11
2022-10-11T00:48:04.060Z,75.40
2022-10-11T00:48:23.306Z,75.59
2022-10-11T00:48:48.808Z,75.46
2022-10-11T00:49:05.537Z,75.48
2022-10-11T00:49:42.026Z,75.32
2022-10-11T00:49:56.308Z,75.45
2022-10-11T00:50:11.313Z,75.17
2022-10-11T00:50:24.697Z,75.47
2022-10-11T00:50:37.311Z,75.31
2022-10-11T00:50:49.735Z,75.47
2022-10-11T00:51:04.791Z,75.19
2022-10-11T00:51:23.347Z,75.03
2022-10-11T00:51:57.851Z,74.92
2022-10-11T00:52:31.214Z,74.71
2022-10-11T00:52:47.096Z,74.90
2022-10-11T00:53:03.063Z,74.91
2022-10-11T00:53:15.411Z,74.76
2022-10-11T00:53:29.401Z,74.77
2022-10-11T00:53:42.089Z,74.80
2022-10-11T00:53:54.048Z,74.89
2022-10-11T00:54:07.575Z,74.81
2022-10-11T00:54:23.964Z,74.91
2022-10-11T00:54:41.721Z,74.87
2022-10-11T00:54:53.873Z,74.79
2022-10-11T00:55:14.200Z,75.06
2022-10-11T00:55:31.252Z,75.02
2022-10-11T00:55:58.808Z,75.32
2022-10-11T00:56:17.289Z,75.49
2022-10-11T00:56:38.944Z,75.41
2022-10-11T00:56:56.914Z,75.51
2022-10-11T00:57:13.956Z,75.70
2022-10-11T00:57:30.136Z,75.91
2022-10-11T00:57:45.967Z,75.71
2022-10-11T00:57:58.854Z,75.93
2022-10-11T00:58:12.536Z,75.98
2022-10-11T00:58:24.761Z,75.82
2022-10-11T00:58:38.125Z,76.08
2022-10-11T00:58:50.606Z,76.19
2022-10-11T00:59:06.375Z,76.19
2022-10-11T00:59:23.932Z,76.18
2022-10-11T00:59:40.295Z,76.38
2022-10-11T00:59:54.831Z,76.12
2022-10-11T01:00:10.576Z,75.92
2022-10-11T01:00:22.539Z,76.01
2022-10-11T01:00:34.571Z,75.98
2022-10-11T01:00:46.714Z,75.97
2022-10-11T01:00:58.673Z,75.68
2022-10-11T01:01:10.912Z,75.87
2022-10-11T01:01:22.874Z,75.97
2022-10-11T01:01:34.898Z,75.73
2022-10-11T01:01:46.982Z,75.87
2022-10-11T01:01:58.971Z,75.88
2022-10-11T01:02:12.673Z,75.80
2022-10-11T01:02:24.879Z,75.97
2022-10-11T01:02:37.114Z,75.84
2022-10-11T01:02:49.303Z,76.13
2022-10-11T01:03:02.967Z,76.16
2022-10-11T01:03:17.374Z,75.90
2022-10-11T01:03:31.403Z,76.05
2022-10-11T01:03:44.730Z,76.13
2022-10-11T01:03:57.364Z,76.02
2022-10-11T01:04:09.299Z,75.89
2022-10-11T01:04:21.627Z,76.12
2022-10-11T01:04:34.359Z,76.37
2022-10-11T01:04:46.547Z,76.42
2022-10-11T01:05:25.212Z,76.35
2022-10-11T01:05:31.397Z,75.97
2022-10-11T01:05:44.275Z,76.31
2022-10-11T01:05:56.328Z,76.23
2022-10-11T01:06:09.117Z,76.27
2022-10-11T01:06:21.147Z,76.19
2022-10-11T01:06:34.847Z,75.97
2022-10-11T01:06:47.397Z,76.00
2022-10-11T01:06:59.992Z,76.03
2022-10-11T01:07:12.407Z,76.15
2022-10-11T01:07:27.935Z,76.21
2022-10-11T01:07:41.470Z,76.02
2022-10-11T01:07:53.819Z,76.30
2022-10-11T01:08:07.118Z,76.15
2022-10-11T01:08:19.176Z,75.97
2022-10-11T01:08:31.728Z,76.27
2022-10-11T01:08:44.317Z,76.12
2022-10-11T01:08:56.465Z,76.08
2022-10-11T01:09:08.449Z,75.79
2022-10-11T01:09:21.245Z,75.91
2022-10-11T01:09:33.669Z,76.15
2022-10-11T01:09:45.749Z,75.82
2022-10-11T01:09:58.302Z,76.11
2022-10-11T01:10:10.459Z,75.93
2022-10-11T01:10:22.519Z,75.73
2022-10-11T01:10:34.936Z,75.75
2022-10-11T01:10:47.116Z,75.64
2022-10-11T01:10:59.630Z,75.70
2022-10-11T01:11:16.579Z,76.07
2022-10-11T01:11:30.797Z,76.07
2022-10-11T01:11:43.910Z,76.19
2022-10-11T01:12:01.030Z,76.33
2022-10-11T01:12:21.635Z,76.29
2022-10-11T01:12:34.015Z,76.23
2022-10-11T01:13:04.429Z,76.08
2022-10-11T01:13:25.172Z,75.90
2022-10-11T01:14:10.227Z,76.07
2022-10-11T01:14:30.973Z,75.99
2022-10-11T01:15:09.933Z,75.94
2022-10-11T01:15:44.867Z,76.72
2022-10-11T01:16:28.709Z,77.20
2022-10-11T01:17:08.194Z,76.97
2022-10-11T01:17:27.059Z,77.02
2022-10-11T01:18:09.085Z,77.19
2022-10-11T01:18:34.553Z,77.02
2022-10-11T01:19:14.937Z,77.05
2022-10-11T01:19:51.338Z,77.08
2022-10-11T01:20:21.833Z,76.67
2022-10-11T01:20:45.838Z,76.74
2022-10-11T01:21:36.714Z,76.59
2022-10-11T01:21:52.740Z,76.70
2022-10-11T01:22:26.216Z,76.73
2022-10-11T01:23:05.696Z,76.61
2022-10-11T01:23:32.368Z,76.86
2022-10-11T01:24:14.996Z,76.46
2022-10-11T01:24:29.566Z,76.60
2022-10-11T01:25:12.164Z,76.93
2022-10-11T01:25:42.462Z,76.56
2022-10-11T01:26:27.028Z,77.01
2022-10-11T01:27:11.303Z,76.65
2022-10-11T01:27:32.371Z,77.23
2022-10-11T01:27:46.990Z,77.08
2022-10-11T01:28:25.142Z,76.97
2022-10-11T01:28:39.725Z,77.06
2022-10-11T01:29:12.488Z,76.96
2022-10-11T01:29:42.330Z,77.12
2022-10-11T01:30:23.234Z,77.42
2022-10-11T01:30:37.032Z,77.43
2022-10-11T01:30:50.987Z,77.38
2022-10-11T01:31:19.851Z,77.19
2022-10-11T01:31:39.359Z,77.31
2022-10-11T01:31:58.542Z,77.27
2022-10-11T01:32:27.733Z,77.57
2022-10-11T01:32:39.578Z,77.37
2022-10-11T01:33:16.173Z,77.34
2022-10-11T01:33:41.317Z,77.11
2022-10-11T01:33:59.941Z,77.20
2022-10-11T01:34:18.900Z,76.98
2022-10-11T01:34:40.709Z,77.11
2022-10-11T01:34:52.571Z,76.95
2022-10-11T01:35:12.809Z,76.95
2022-10-11T01:36:09.127Z,76.96
2022-10-11T01:36:32.771Z,77.11
2022-10-11T01:36:55.071Z,77.11
2022-10-11T01:37:25.187Z,77.19
2022-10-11T01:37:42.642Z,76.95
2022-10-11T01:38:04.158Z,77.00
2022-10-11T01:38:32.891Z,76.87
2022-10-11T01:38:53.196Z,76.77
2022-10-11T01:39:09.741Z,76.59
2022-10-11T01:39:31.554Z,76.51
2022-10-11T01:39:51.704Z,76.21
2022-10-11T01:40:27.326Z,76.04
2022-10-11T01:40:49.262Z,75.93
2022-10-11T01:41:12.180Z,76.05
2022-10-11T01:41:28.039Z,75.81
2022-10-11T01:41:51.287Z,75.78
2022-10-11T01:42:06.277Z,75.92
2022-10-11T01:42:19.763Z,75.95
2022-10-11T01:42:31.828Z,75.71
2022-10-11T01:42:44.235Z,75.93
2022-10-11T01:42:57.613Z,75.89
2022-10-11T01:43:10.245Z,75.76
2022-10-11T01:43:24.319Z,75.88
2022-10-11T01:43:38.741Z,76.03
2022-10-11T01:43:56.166Z,76.07
2022-10-11T01:44:09.172Z,76.13
2022-10-11T01:44:23.978Z,76.03
2022-10-11T01:44:38.231Z,75.82
2022-10-11T01:44:51.255Z,76.42
2022-10-11T01:45:04.972Z,76.27
2022-10-11T01:45:18.772Z,75.95
2022-10-11T01:45:32.730Z,76.13
2022-10-11T01:45:47.784Z,76.26
2022-10-11T01:46:00.409Z,76.38
2022-10-11T01:46:13.485Z,76.13
2022-10-11T01:46:28.112Z,75.92
2022-10-11T01:46:40.838Z,75.99
2022-10-11T01:46:53.770Z,76.13
2022-10-11T01:47:05.800Z,76.01
2022-10-11T01:47:22.917Z,76.02
2022-10-11T01:47:35.188Z,76.00
2022-10-11T01:47:47.546Z,75.78
2022-10-11T01:48:05.246Z,75.71
2022-10-11T01:48:17.553Z,75.51
2022-10-11T01:48:29.456Z,75.66
2022-10-11T01:48:52.590Z,75.70
2022-10-11T01:49:05.092Z,75.77
2022-10-11T01:49:17.044Z,75.62
2022-10-11T01:49:28.925Z,75.63
2022-10-11T01:49:41.870Z,75.63
2022-10-11T01:49:58.818Z,75.36
2022-10-11T01:50:35.200Z,75.47
2022-10-11T01:50:50.955Z,75.39
2022-10-11T01:51:04.026Z,75.20
2022-10-11T01:51:16.303Z,75.31
2022-10-11T01:51:48.190Z,75.16
2022-10-11T01:52:06.258Z,75.44
2022-10-11T01:52:18.136Z,75.46
2022-10-11T01:52:33.858Z,75.68
2022-10-11T01:52:46.632Z,75.64
2022-10-11T01:53:21.196Z,76.08
2022-10-11T01:53:35.847Z,75.99
2022-10-11T01:54:10.990Z,75.97
2022-10-11T01:55:15.607Z,76.28
2022-10-11T01:55:41.120Z,76.23
2022-10-11T01:56:21.398Z,76.02
2022-10-11T01:57:11.795Z,76.90
2022-10-11T01:57:44.790Z,77.05
2022-10-11T01:58:29.108Z,76.61
2022-10-11T01:59:13.459Z,76.55
2022-10-11T01:59:46.969Z,76.64
2022-10-11T02:00:15.270Z,76.76
2022-10-11T02:00:33.977Z,76.97
2022-10-11T02:00:58.012Z,76.67
2022-10-11T02:01:19.011Z,76.28
2022-10-11T02:01:39.762Z,76.59
2022-10-11T02:02:18.250Z,76.50
2022-10-11T02:02:45.036Z,76.54
2022-10-11T02:03:22.940Z,76.31
2022-10-11T02:04:02.817Z,76.45
2022-10-11T02:04:25.917Z,76.25
2022-10-11T02:04:48.637Z,76.36
2022-10-11T02:05:16.511Z,76.72
2022-10-11T02:05:53.154Z,76.73
2022-10-11T02:06:26.541Z,76.57
2022-10-11T02:06:50.709Z,76.52
2022-10-11T02:07:17.226Z,76.83
2022-10-11T02:08:17.131Z,77.02
2022-10-11T02:08:50.885Z,76.79
2022-10-11T02:09:20.904Z,76.80
2022-10-11T02:09:38.241Z,76.92
2022-10-11T02:10:03.327Z,76.97
2022-10-11T02:10:30.539Z,77.26
2022-10-11T02:10:55.897Z,77.97
2022-10-11T02:11:21.109Z,77.76
2022-10-11T02:11:34.657Z,77.93
2022-10-11T02:11:46.790Z,77.75
2022-10-11T02:12:05.152Z,77.89
2022-10-11T02:12:25.308Z,77.81
2022-10-11T02:12:42.913Z,78.36
2022-10-11T02:13:17.709Z,78.09
2022-10-11T02:13:35.566Z,78.42
2022-10-11T02:14:08.802Z,78.15
2022-10-11T02:14:24.767Z,77.85
2022-10-11T02:14:41.773Z,78.10
2022-10-11T02:14:56.610Z,78.11
2022-10-11T02:15:12.505Z,78.52
2022-10-11T02:15:28.068Z,78.51
2022-10-11T02:15:41.891Z,78.48
2022-10-11T02:15:57.249Z,78.38
2022-10-11T02:16:16.364Z,78.29
2022-10-11T02:17:07.722Z,78.25
2022-10-11T02:17:25.235Z,78.43
2022-10-11T02:17:43.286Z,78.64
2022-10-11T02:17:58.940Z,78.87
2022-10-11T02:18:16.404Z,78.71
2022-10-11T02:18:36.064Z,78.71
2022-10-11T02:18:52.203Z,78.93
2022-10-11T02:19:07.048Z,78.74
2022-10-11T02:19:23.041Z,78.89
2022-10-11T02:19:40.801Z,79.00
2022-10-11T02:19:56.617Z,79.29
2022-10-11T02:20:14.353Z,78.89
2022-10-11T02:20:28.534Z,78.53
2022-10-11T02:20:42.872Z,78.83
2022-10-11T02:20:57.234Z,79.18
2022-10-11T02:21:13.224Z,78.97
2022-10-11T02:21:27.500Z,78.80
2022-10-11T02:21:43.801Z,78.52
2022-10-11T02:22:01.392Z,78.61
2022-10-11T02:22:40.031Z,78.63
2022-10-11T02:23:00.399Z,78.90
2022-10-11T02:23:17.456Z,79.29
2022-10-11T02:23:36.885Z,79.47
2022-10-11T02:24:00.037Z,79.78
2022-10-11T02:24:21.555Z,79.63
2022-10-11T02:24:36.092Z,79.48
2022-10-11T02:24:52.663Z,79.30
2022-10-11T02:25:10.482Z,79.20
2022-10-11T02:25:27.238Z,79.41
2022-10-11T02:25:39.511Z,79.09
2022-10-11T02:25:52.487Z,79.40
2022-10-11T02:26:07.273Z,79.21
2022-10-11T02:26:21.914Z,79.24
2022-10-11T02:26:36.337Z,79.53
2022-10-11T02:26:54.084Z,79.81
2022-10-11T02:27:07.696Z,79.93
2022-10-11T02:27:23.008Z,80.13
2022-10-11T02:27:38.592Z,79.70
2022-10-11T02:27:54.592Z,79.94
2022-10-11T02:28:12.269Z,79.77
2022-10-11T02:28:29.668Z,79.54
2022-10-11T02:28:43.933Z,79.69
2022-10-11T02:29:00.308Z,79.38
2022-10-11T02:29:15.609Z,79.46
2022-10-11T02:29:30.728Z,79.30
2022-10-11T02:29:45.210Z,79.58
2022-10-11T02:30:01.548Z,79.26
2022-10-11T02:30:15.330Z,79.09
2022-10-11T02:30:29.021Z,79.28
2022-10-11T02:30:43.949Z,79.40
2022-10-11T02:30:57.917Z,79.34
2022-10-11T02:31:11.851Z,79.43
2022-10-11T02:31:25.401Z,79.52
2022-10-11T02:31:39.714Z,79.73
2022-10-11T02:31:52.751Z,79.90
2022-10-11T02:32:06.754Z,79.83
2022-10-11T02:32:21.847Z,79.71
2022-10-11T02:32:36.932Z,79.75
2022-10-11T02:32:51.390Z,79.77
2022-10-11T02:33:07.607Z,79.83
2022-10-11T02:33:26.944Z,79.37
2022-10-11T02:33:44.856Z,79.14
2022-10-11T02:34:00.300Z,79.39
2022-10-11T02:34:18.534Z,79.43
2022-10-11T02:34:35.264Z,79.18
2022-10-11T02:34:52.099Z,79.30
2022-10-11T02:35:04.485Z,78.97
2022-10-11T02:35:17.314Z,78.90
2022-10-11T02:35:32.292Z,78.95
2022-10-11T02:35:50.167Z,79.09
2022-10-11T02:36:08.622Z,79.06
2022-10-11T02:36:32.918Z,79.17
2022-10-11T02:36:47.816Z,79.03
2022-10-11T02:37:05.446Z,79.21
2022-10-11T02:37:34.447Z,79.53
2022-10-11T02:37:51.981Z,79.48
2022-10-11T02:38:26.134Z,79.40
2022-10-11T02:38:44.126Z,79.65
2022-10-11T02:39:03.297Z,79.49
2022-10-11T02:39:23.483Z,79.17
2022-10-11T02:39:35.301Z,79.17
2022-10-11T02:39:58.182Z,79.45
2022-10-11T02:40:30.914Z,78.97
2022-10-11T02:40:46.174Z,79.37
2022-10-11T02:41:02.597Z,79.33
2022-10-11T02:41:26.410Z,79.73
2022-10-11T02:41:40.640Z,79.46
2022-10-11T02:41:56.324Z,79.68
2022-10-11T02:42:14.814Z,79.38
2022-10-11T02:42:42.944Z,79.11
2022-10-11T02:43:03.398Z,79.26
2022-10-11T02:43:24.066Z,78.78
2022-10-11T02:43:43.445Z,79.08
2022-10-11T02:44:00.428Z,79.40
2022-10-11T02:44:35.324Z,79.24
2022-10-11T02:44:59.580Z,79.24
2022-10-11T02:45:27.897Z,79.09
2022-10-11T02:45:44.615Z,79.05
2022-10-11T02:46:00.185Z,78.96
2022-10-11T02:46:13.412Z,79.05
2022-10-11T02:46:30.398Z,78.98
2022-10-11T02:46:44.236Z,78.89
2022-10-11T02:46:56.227Z,79.16
2022-10-11T02:47:09.065Z,78.96
2022-10-11T02:47:21.319Z,78.90
2022-10-11T02:47:33.851Z,78.91
2022-10-11T02:47:46.880Z,79.08
2022-10-11T02:47:58.961Z,78.89
2022-10-11T02:48:12.527Z,78.56
2022-10-11T02:48:25.189Z,78.48
2022-10-11T02:48:37.524Z,78.59
2022-10-11T02:48:50.293Z,78.22
2022-10-11T02:49:02.858Z,78.26
2022-10-11T02:49:16.485Z,77.99
2022-10-11T02:49:29.767Z,78.13
2022-10-11T02:49:41.843Z,78.11
2022-10-11T02:49:54.271Z,77.86
2022-10-11T02:50:06.681Z,78.00
2022-10-11T02:50:18.720Z,78.07
2022-10-11T02:50:30.724Z,77.94
2022-10-11T02:50:43.430Z,77.85
2022-10-11T02:50:57.181Z,77.78
2022-10-11T02:51:13.690Z,77.65
2022-10-11T02:51:29.495Z,77.33
2022-10-11T02:51:41.716Z,77.30
2022-10-11T02:51:56.112Z,77.47
2022-10-11T02:52:08.041Z,77.38
2022-10-11T02:52:19.933Z,77.46
2022-10-11T02:52:31.822Z,77.24
2022-10-11T02:52:43.824Z,77.58
2022-10-11T02:52:55.717Z,77.39
2022-10-11T02:53:08.369Z,77.52
2022-10-11T02:53:21.131Z,77.53
2022-10-11T02:53:33.570Z,77.45
2022-10-11T02:53:45.577Z,77.43
2022-10-11T02:53:57.722Z,77.27
2022-10-11T02:54:09.671Z,77.29
2022-10-11T02:54:21.815Z,77.38
2022-10-11T02:54:34.077Z,77.31
2022-10-11T02:54:46.065Z,77.19
2022-10-11T02:54:58.000Z,77.36
2022-10-11T02:55:10.971Z,77.35
2022-10-11T02:55:22.959Z,77.17
2022-10-11T02:55:35.039Z,76.47
2022-10-11T02:55:49.339Z,76.27
2022-10-11T02:56:01.367Z,76.45
2022-10-11T02:56:13.431Z,76.26
2022-10-11T02:56:25.499Z,76.13
2022-10-11T02:56:37.393Z,75.74
2022-10-11T02:56:49.338Z,75.81
2022-10-11T02:57:01.267Z,75.71
2022-10-11T02:57:13.208Z,75.38
2022-10-11T02:57:25.129Z,75.46
2022-10-11T02:57:37.005Z,75.71
2022-10-11T02:57:48.993Z,75.72
2022-10-11T02:58:01.196Z,75.92
2022-10-11T02:58:13.068Z,75.94
2022-10-11T02:58:25.370Z,75.99
2022-10-11T02:58:37.273Z,75.98
2022-10-11T02:58:49.571Z,75.95
2022-10-11T02:59:01.471Z,75.72
2022-10-11T02:59:13.399Z,75.72
2022-10-11T02:59:25.299Z,75.92
2022-10-11T02:59:37.339Z,76.03
2022-10-11T02:59:49.272Z,76.13
2022-10-11T03:00:01.272Z,75.99
2022-10-11T03:00:13.896Z,75.99
2022-10-11T03:00:25.885Z,75.89
2022-10-11T03:00:37.761Z,75.73
2022-10-11T03:00:50.251Z,75.72
2022-10-11T03:01:02.135Z,75.70
2022-10-11T03:01:14.384Z,75.71
2022-10-11T03:01:26.406Z,75.56
2022-10-11T03:01:38.352Z,75.63
2022-10-11T03:01:50.298Z,75.62
2022-10-11T03:02:02.257Z,75.83
2022-10-11T03:02:14.241Z,75.55
2022-10-11T03:02:26.149Z,75.83
2022-10-11T03:02:38.080Z,75.89
2022-10-11T03:02:50.043Z,76.00
2022-10-11T03:03:01.917Z,75.87
2022-10-11T03:03:13.878Z,75.96
2022-10-11T03:03:25.779Z,75.89
2022-10-11T03:03:37.786Z,75.69
2022-10-11T03:03:49.740Z,75.78
2022-10-11T03:04:01.641Z,75.73
2022-10-11T03:04:13.547Z,75.74
2022-10-11T03:04:25.505Z,75.87
2022-10-11T03:04:37.442Z,75.69
2022-10-11T03:04:49.357Z,75.54
2022-10-11T03:05:01.376Z,75.76
2022-10-11T03:05:13.271Z,75.87
2022-10-11T03:05:25.249Z,75.84
2022-10-11T03:05:40.600Z,75.93
2022-10-11T03:05:58.453Z,76.11
2022-10-11T03:06:10.341Z,76.04
2022-10-11T03:06:22.243Z,76.17
2022-10-11T03:06:34.401Z,75.96
2022-10-11T03:06:46.308Z,75.92
2022-10-11T03:06:58.243Z,76.20
2022-10-11T03:07:10.150Z,76.19
2022-10-11T03:07:22.051Z,76.40
2022-10-11T03:07:33.989Z,76.37
2022-10-11T03:07:45.875Z,76.58
2022-10-11T03:07:57.802Z,76.21
2022-10-11T03:08:12.389Z,76.30
2022-10-11T03:08:24.333Z,76.53
2022-10-11T03:08:36.280Z,76.33
2022-10-11T03:08:48.180Z,76.07
2022-10-11T03:09:00.111Z,76.18
2022-10-11T03:09:12.026Z,76.15
2022-10-11T03:09:24.032Z,76.12
2022-10-11T03:09:35.960Z,75.99
2022-10-11T03:09:47.872Z,76.30
2022-10-11T03:09:59.794Z,76.06
2022-10-11T03:10:11.715Z,76.13
2022-10-11T03:10:23.604Z,75.85
2022-10-11T03:10:35.891Z,75.96
2022-10-11T03:10:48.231Z,75.97
2022-10-11T03:11:00.197Z,75.99
2022-10-11T03:11:12.096Z,76.14
2022-10-11T03:11:24.046Z,76.44
2022-10-11T03:11:36.060Z,76.53
2022-10-11T03:11:48.461Z,76.89
2022-10-11T03:12:00.417Z,76.70
2022-10-11T03:12:12.305Z,76.83
2022-10-11T03:12:24.347Z,76.49
2022-10-11T03:12:36.258Z,76.58
2022-10-11T03:12:48.605Z,76.39
2022-10-11T03:13:00.790Z,76.55
2022-10-11T03:13:17.292Z,76.50
2022-10-11T03:13:30.116Z,76.57
2022-10-11T03:13:41.974Z,76.70
2022-10-11T03:13:53.858Z,76.47
2022-10-11T03:14:05.739Z,76.55
2022-10-11T03:14:17.635Z,76.51
2022-10-11T03:14:29.627Z,76.68
2022-10-11T03:14:52.628Z,76.68
2022-10-11T03:15:05.943Z,76.74
2022-10-11T03:15:17.863Z,76.70
2022-10-11T03:15:30.008Z,76.43
2022-10-11T03:15:41.867Z,76.47
2022-10-11T03:16:03.616Z,76.44
2022-10-11T03:16:15.644Z,76.54
2022-10-11T03:16:30.258Z,76.45
2022-10-11T03:16:42.180Z,76.34
2022-10-11T03:16:55.785Z,76.46
2022-10-11T03:17:35.115Z,76.32
2022-10-11T03:17:47.579Z,76.25
2022-10-11T03:18:03.727Z,76.09
2022-10-11T03:18:15.920Z,76.22
2022-10-11T03:18:27.892Z,76.31
2022-10-11T03:18:39.813Z,76.14
2022-10-11T03:18:51.731Z,76.28
2022-10-11T03:19:04.075Z,76.04
2022-10-11T03:19:20.105Z,76.13
2022-10-11T03:19:33.571Z,76.15
2022-10-11T03:19:45.539Z,75.91
2022-10-11T03:19:57.518Z,76.16
2022-10-11T03:20:11.855Z,75.98
2022-10-11T03:20:24.605Z,75.93
2022-10-11T03:20:36.541Z,75.76
2022-10-11T03:20:48.428Z,75.93
2022-10-11T03:21:00.349Z,75.99
2022-10-11T03:21:12.263Z,75.99
2022-10-11T03:21:25.136Z,76.02
2022-10-11T03:21:37.162Z,75.72
2022-10-11T03:21:51.114Z,75.91
2022-10-11T03:22:03.020Z,75.91
2022-10-11T03:22:17.506Z,75.66
2022-10-11T03:22:29.397Z,75.82
2022-10-11T03:22:41.286Z,75.64
2022-10-11T03:22:53.201Z,75.55
2022-10-11T03:23:06.963Z,75.71
2022-10-11T03:23:20.786Z,75.52
2022-10-11T03:23:32.817Z,75.44
2022-10-11T03:23:44.707Z,75.53
2022-10-11T03:23:56.570Z,75.48
2022-10-11T03:24:09.788Z,75.33
2022-10-11T03:24:21.781Z,75.38
2022-10-11T03:24:33.640Z,75.40
2022-10-11T03:24:48.082Z,75.06
2022-10-11T03:25:04.135Z,75.08
2022-10-11T03:25:17.272Z,75.35
2022-10-11T03:25:29.182Z,75.08
2022-10-11T03:25:43.666Z,75.21
2022-10-11T03:25:55.753Z,75.54
2022-10-11T03:26:08.647Z,75.43
2022-10-11T03:26:21.020Z,75.24
2022-10-11T03:26:35.917Z,75.28
2022-10-11T03:26:48.237Z,75.25
2022-10-11T03:27:00.141Z,75.22
2022-10-11T03:27:12.183Z,75.13